< < Back
Terminal Aerodrome Forecast


Current Version              Previous Versions:   1  2  3  4  5  6  7  8  9  

Terminal Aerodrome Forecast

500
FTUS42 KGSP 280800 AAA
TAFAND
TAF AMD
KAND 280805Z 2808/2906 26010KT P6SM BKN160
      TEMPO 2808/2810 6SM -SHRA OVC040
     FM281100 26008KT P6SM SCT150
     FM281600 28013G20KT P6SM FEW060
     FM290000 30009KT P6SM FEW250
     FM290500 32005KT P6SM FEW250=

Latest METAR

894
SAUS70 KWBC 290400 RRD
MTRAND
METAR KAND 290356Z AUTO 00000KT 10SM CLR 21/15 A2994 RMK AO2 SLP127
T02110150


USA.gov is the U.S. government's official web portal to all federal, state and local government web resources and services.